Milford, UT (84751)

1:41 AM MDT on July 28, 2016 (GMT -0600)
Milford Municipal | | Change Station

Elev 5039 ft 38.43 °N, 113.01 °W | Updated 49 minutes ago

Clear
Clear
74 °F
Feels Like 74 °F
N
8
Wind Variable Wind from South

Today
High -- | Low -- °F
--% Chance of Precip.
Yesterday
High -- | Low -- °F
Precip. -- in
Pressure 29.85 in
Visibility 10.0 miles
Clouds Clear
Dew Point 28 °F
Humidity 18%
Rainfall 0.00 in
Snow Depth Not available.
6:31 AM 8:45 PM
Waning Crescent, 35% visible
METAR KMLF 280652Z AUTO 17007KT 10SM CLR 23/M02 A3009 RMK AO2 SLP106 T02331022 403940150
Pressure 29.85 in
Visibility 10.0 miles
Clouds Clear
Dew Point 28 °F
Humidity 18%
Rainfall 0.00 in
Snow Depth Not available.
6:31 AM 8:45 PM
Waning Crescent, 35% visible
METAR KMLF 280652Z AUTO 17007KT 10SM CLR 23/M02 A3009 RMK AO2 SLP106 T02331022 403940150

10-Day Weather Forecast

Almanac

Astronomy

Jul. 28, 2016 Rise Set
Actual Time
Civil Twilight
Nautical Twilight
Astronomical Twilight
Moon
Length of Visible Light
Length of Day
Tomorrow will be .
, % of the Moon is Illuminated

Today's Extremes

State Highs State Lows

Community

WunderPhotos

Upload Photos

1,928,070 photos uploaded!

WunderBlog® & News

Nearby

Air Quality

  Air Quality AQ Index Pollutant
Not available.

Snow Depth

Station Depth Elevation

Earthquake Activity

City Distance Mag. Time & Date
Minimum magnitude displayed is 2.5.

Coastal Water Temperatures

Place Temperature

Stations

Nearby Weather Stations

Station Location Temp. Windchill Dew Point Humidity Wind Precip. Elev Updated Type
                   

Watches & Warnings

There are currently no watches in effect.